Time,TemperatureF,DewpointF,PressureIn,WindDirection,WindDirectionDegrees,WindSpeedMPH,WindSpeedGustMPH,Humidity,HourlyPrecipIn,Conditions,Clouds,dailyrainin,SoftwareType,DateUTC
2013-01-20 00:00:00,67.4,57.8,29.94,ENE,64,10.0,-999.0,71,0.00,,,0.00,PyWeather,2013-01-20 10:00:00,
2013-01-20 00:01:00,66.9,57.7,29.94,NE,51,10.0,-999.0,72,0.00,,,0.00,PyWeather,2013-01-20 10:01:00,
2013-01-20 00:02:00,67.4,57.8,29.94,NE,55,10.0,-999.0,71,0.00,,,0.00,PyWeather,2013-01-20 10:02:00,
2013-01-20 00:05:00,67.4,57.8,29.94,ENE,64,10.0,-999.0,71,0.00,,,0.00,PyWeather,2013-01-20 10:05:00,
2013-01-20 00:06:00,67.1,57.5,29.94,ENE,59,10.0,-999.0,71,0.00,,,0.00,PyWeather,2013-01-20 10:06:00,
2013-01-20 00:08:00,67.5,58.3,29.94,ENE,59,10.0,-999.0,72,0.00,,,0.00,PyWeather,2013-01-20 10:08:00,
2013-01-20 00:10:00,67.5,58.3,29.94,ENE,64,11.0,-999.0,72,0.00,,,0.00,PyWeather,2013-01-20 10:10:00,
2013-01-20 00:11:00,67.5,58.3,29.94,NE,51,11.0,-999.0,72,0.00,,,0.00,PyWeather,2013-01-20 10:11:00,
2013-01-20 00:12:00,67.2,57.6,29.94,ENE,72,10.0,-999.0,71,0.00,,,0.00,PyWeather,2013-01-20 10:12:00,
2013-01-20 00:13:00,67.5,58.3,29.94,ENE,60,11.0,-999.0,72,0.00,,,0.00,PyWeather,2013-01-20 10:13:00,
2013-01-20 00:14:00,67.5,58.7,29.94,ENE,62,11.0,-999.0,73,0.00,,,0.00,PyWeather,2013-01-20 10:14:00,
2013-01-20 00:15:00,67.5,58.7,29.94,ENE,67,11.0,-999.0,73,0.00,,,0.00,PyWeather,2013-01-20 10:15:00,
2013-01-20 00:16:00,67.5,58.7,29.94,ENE,74,11.0,-999.0,73,0.00,,,0.00,PyWeather,2013-01-20 10:16:00,
2013-01-20 00:17:00,67.4,57.8,29.94,NE,51,10.0,-999.0,71,0.00,,,0.00,PyWeather,2013-01-20 10:17:00,
2013-01-20 00:18:00,67.5,59.1,29.94,NE,53,11.0,-999.0,74,0.00,,,0.00,PyWeather,2013-01-20 10:18:00,
2013-01-20 00:19:00,67.5,59.1,29.94,ENE,69,11.0,-999.0,74,0.00,,,0.00,PyWeather,2013-01-20 10:19:00,
2013-01-20 00:20:00,67.6,59.2,29.94,ENE,75,11.0,-999.0,74,0.00,,,0.00,PyWeather,2013-01-20 10:20:00,
2013-01-20 00:21:00,67.6,59.2,29.94,ENE,60,11.0,-999.0,74,0.00,,,0.00,PyWeather,2013-01-20 10:21:00,
2013-01-20 00:22:00,67.5,57.9,29.94,NE,49,10.0,-999.0,71,0.00,,,0.00,PyWeather,2013-01-20 10:22:00,
2013-01-20 00:23:00,67.6,59.2,29.94,NE,51,10.0,-999.0,74,0.00,,,0.00,PyWeather,2013-01-20 10:23:00,
2013-01-20 00:24:00,67.6,59.2,29.94,NE,45,10.0,-999.0,74,0.00,,,0.00,PyWeather,2013-01-20 10:24:00,
2013-01-20 00:25:00,67.6,59.2,29.94,NE,44,10.0,-999.0,74,0.00,,,0.00,PyWeather,2013-01-20 10:25:00,
2013-01-20 00:26:00,67.6,59.2,29.94,NE,48,9.0,-999.0,74,0.00,,,0.00,PyWeather,2013-01-20 10:26:00,
2013-01-20 00:27:00,67.5,59.1,29.94,NE,54,9.0,-999.0,74,0.00,,,0.00,PyWeather,2013-01-20 10:27:00,
2013-01-20 00:28:00,67.5,59.1,29.94,NE,36,10.0,-999.0,74,0.00,,,0.00,PyWeather,2013-01-20 10:28:00,
2013-01-20 00:29:00,67.5,58.7,29.94,NE,52,11.0,-999.0,73,0.00,,,0.00,PyWeather,2013-01-20 10:29:00,
2013-01-20 00:30:00,67.5,59.1,29.94,NE,53,9.0,-999.0,74,0.00,,,0.00,PyWeather,2013-01-20 10:30:00,
2013-01-20 00:31:00,67.4,59.0,29.94,NE,48,9.0,-999.0,74,0.00,,,0.00,PyWeather,2013-01-20 10:31:00,
2013-01-20 00:32:00,67.5,59.1,29.94,NE,46,9.0,-999.0,74,0.00,,,0.00,PyWeather,2013-01-20 10:32:00,
2013-01-20 00:33:00,67.5,59.1,29.94,NE,46,9.0,-999.0,74,0.00,,,0.00,PyWeather,2013-01-20 10:33:00,
2013-01-20 00:34:00,67.5,59.1,29.94,NE,52,9.0,-999.0,74,0.00,,,0.00,PyWeather,2013-01-20 10:34:00,
2013-01-20 00:35:00,67.6,59.2,29.94,NE,55,11.0,-999.0,74,0.00,,,0.00,PyWeather,2013-01-20 10:35:00,
2013-01-20 00:36:00,67.7,59.3,29.94,NE,46,10.0,-999.0,74,0.00,,,0.00,PyWeather,2013-01-20 10:36:00,
2013-01-20 00:37:00,67.7,59.3,29.94,NE,46,9.0,-999.0,74,0.00,,,0.00,PyWeather,2013-01-20 10:37:00,
2013-01-20 00:38:00,67.8,59.3,29.94,NE,41,9.0,-999.0,74,0.00,,,0.00,PyWeather,2013-01-20 10:38:00,
2013-01-20 00:40:00,67.6,59.2,29.94,NE,42,10.0,-999.0,74,0.00,,,0.00,PyWeather,2013-01-20 10:40:00,
2013-01-20 00:42:00,67.8,59.0,29.94,NE,48,10.0,-999.0,73,0.00,,,0.00,PyWeather,2013-01-20 10:42:00,
2013-01-20 00:45:00,67.5,59.1,29.94,NE,49,9.0,-999.0,74,0.00,,,0.00,PyWeather,2013-01-20 10:45:00,
2013-01-20 00:46:00,67.9,59.1,29.94,NE,44,10.0,-999.0,73,0.00,,,0.00,PyWeather,2013-01-20 10:46:00,
2013-01-20 00:47:00,67.9,58.7,29.94,NE,50,10.0,-999.0,72,0.00,,,0.00,PyWeather,2013-01-20 10:47:00,
2013-01-20 00:48:00,67.9,58.7,29.94,NNE,32,10.0,-999.0,72,0.00,,,0.00,PyWeather,2013-01-20 10:48:00,
2013-01-20 00:49:00,67.9,58.7,29.94,NE,42,10.0,-999.0,72,0.00,,,0.00,PyWeather,2013-01-20 10:49:00,
2013-01-20 00:50:00,67.6,59.2,29.94,NE,39,10.0,-999.0,74,0.00,,,0.00,PyWeather,2013-01-20 10:50:00,
2013-01-20 00:51:00,67.9,58.3,29.94,NNE,30,11.0,-999.0,71,0.00,,,0.00,PyWeather,2013-01-20 10:51:00,
2013-01-20 00:52:00,67.9,58.3,29.93,NE,49,11.0,-999.0,71,0.00,,,0.00,PyWeather,2013-01-20 10:52:00,
2013-01-20 00:53:00,68.0,58.4,29.94,NE,49,11.0,-999.0,71,0.00,,,0.00,PyWeather,2013-01-20 10:53:00,
2013-01-20 00:54:00,68.0,58.0,29.93,NE,40,11.0,-999.0,70,0.00,,,0.00,PyWeather,2013-01-20 10:54:00,
2013-01-20 00:55:00,67.8,59.3,29.94,NE,43,9.0,-999.0,74,0.00,,,0.00,PyWeather,2013-01-20 10:55:00,
2013-01-20 00:56:00,68.0,58.0,29.93,ENE,71,10.0,-999.0,70,0.00,,,0.00,PyWeather,2013-01-20 10:56:00,
2013-01-20 00:59:00,67.8,57.8,29.93,ENE,62,9.0,-999.0,70,0.00,,,0.00,PyWeather,2013-01-20 10:59:00,
2013-01-20 01:00:00,67.9,59.1,29.94,NE,42,10.0,-999.0,73,0.00,,,0.00,PyWeather,2013-01-20 11:00:00,
2013-01-20 01:01:00,67.7,57.7,29.93,NE,56,9.0,-999.0,70,0.00,,,0.00,PyWeather,2013-01-20 11:01:00,
2013-01-20 01:03:00,67.6,57.6,29.93,ENE,57,8.0,-999.0,70,0.00,,,0.00,PyWeather,2013-01-20 11:03:00,
2013-01-20 01:04:00,67.5,57.5,29.93,ENE,69,8.0,-999.0,70,0.00,,,0.00,PyWeather,2013-01-20 11:04:00,
2013-01-20 01:05:00,67.4,57.4,29.93,ENE,66,8.0,-999.0,70,0.00,,,0.00,PyWeather,2013-01-20 11:05:00,
2013-01-20 01:06:00,67.9,58.3,29.94,NE,36,11.0,-999.0,71,0.00,,,0.00,PyWeather,2013-01-20 11:06:00,
2013-01-20 01:11:00,68.0,58.0,29.93,ENE,71,10.0,-999.0,70,0.00,,,0.00,PyWeather,2013-01-20 11:11:00,
2013-01-20 01:12:00,66.2,57.8,29.93,ENE,57,7.0,-999.0,74,0.00,,,0.00,PyWeather,2013-01-20 11:12:00,
2013-01-20 01:13:00,66.1,57.7,29.93,NE,51,7.0,-999.0,74,0.00,,,0.00,PyWeather,2013-01-20 11:13:00,
2013-01-20 01:14:00,66.0,57.6,29.93,ENE,61,7.0,-999.0,74,0.00,,,0.00,PyWeather,2013-01-20 11:14:00,
2013-01-20 01:15:00,65.9,57.5,29.93,ENE,61,8.0,-999.0,74,0.00,,,0.00,PyWeather,2013-01-20 11:15:00,
2013-01-20 01:16:00,67.6,57.6,29.93,ENE,65,9.0,-999.0,70,0.00,,,0.00,PyWeather,2013-01-20 11:16:00,
2013-01-20 01:17:00,65.7,57.3,29.93,ENE,65,8.0,-999.0,74,0.00,,,0.00,PyWeather,2013-01-20 11:17:00,
2013-01-20 01:21:00,67.2,57.6,29.93,ENE,69,7.0,-999.0,71,0.00,,,0.00,PyWeather,2013-01-20 11:21:00,
2013-01-20 01:26:00,66.2,57.8,29.93,ENE,71,7.0,-999.0,74,0.00,,,0.00,PyWeather,2013-01-20 11:26:00,
2013-01-20 01:31:00,65.8,57.4,29.93,NE,45,8.0,-999.0,74,0.00,,,0.00,PyWeather,2013-01-20 11:31:00,
2013-01-20 01:36:00,65.7,57.3,29.93,NE,55,8.0,-999.0,74,0.00,,,0.00,PyWeather,2013-01-20 11:36:00,
2013-01-20 01:41:00,65.7,57.3,29.93,ENE,64,9.0,-999.0,74,0.00,,,0.00,PyWeather,2013-01-20 11:41:00,
2013-01-20 01:43:00,65.7,57.3,29.92,ENE,69,10.0,-999.0,74,0.00,,,0.00,PyWeather,2013-01-20 11:43:00,
2013-01-20 01:44:00,65.6,57.2,29.92,NE,51,10.0,-999.0,74,0.00,,,0.00,PyWeather,2013-01-20 11:44:00,
2013-01-20 01:45:00,65.7,57.3,29.92,NE,48,10.0,17.0,74,0.00,,,0.00,PyWeather,2013-01-20 11:45:00,
2013-01-20 01:46:00,65.8,57.0,29.92,ENE,63,9.0,-999.0,73,0.00,,,0.00,PyWeather,2013-01-20 11:46:00,
2013-01-20 01:47:00,65.7,57.3,29.92,ENE,63,10.0,17.0,74,0.00,,,0.00,PyWeather,2013-01-20 11:47:00,
2013-01-20 01:48:00,65.7,57.3,29.92,ENE,64,10.0,17.0,74,0.00,,,0.00,PyWeather,2013-01-20 11:48:00,
2013-01-20 01:49:00,65.7,57.3,29.92,NE,42,10.0,17.0,74,0.00,,,0.00,PyWeather,2013-01-20 11:49:00,
2013-01-20 01:50:00,65.6,57.2,29.92,NE,52,10.0,17.0,74,0.00,,,0.00,PyWeather,2013-01-20 11:50:00,
2013-01-20 01:51:00,65.7,57.3,29.92,NE,53,10.0,17.0,74,0.00,,,0.00,PyWeather,2013-01-20 11:51:00,
2013-01-20 01:52:00,65.7,57.3,29.92,ENE,65,9.0,-999.0,74,0.00,,,0.00,PyWeather,2013-01-20 11:52:00,
2013-01-20 01:53:00,65.6,57.6,29.92,NE,51,11.0,17.0,75,0.00,,,0.00,PyWeather,2013-01-20 11:53:00,
2013-01-20 01:54:00,65.6,57.6,29.92,NE,55,11.0,17.0,75,0.00,,,0.00,PyWeather,2013-01-20 11:54:00,
2013-01-20 01:55:00,65.6,57.6,29.92,ENE,67,11.0,-999.0,75,0.00,,,0.00,PyWeather,2013-01-20 11:55:00,
2013-01-20 01:56:00,65.6,57.6,29.91,NNE,33,10.0,-999.0,75,0.00,,,0.00,PyWeather,2013-01-20 11:56:00,
2013-01-20 01:57:00,65.7,57.3,29.92,ENE,63,9.0,-999.0,74,0.00,,,0.00,PyWeather,2013-01-20 11:57:00,
2013-01-20 02:02:00,65.7,57.3,29.92,ENE,70,10.0,17.0,74,0.00,,,0.00,PyWeather,2013-01-20 12:02:00,
2013-01-20 02:03:00,65.7,57.3,29.91,ENE,59,11.0,-999.0,74,0.00,,,0.00,PyWeather,2013-01-20 12:03:00,
2013-01-20 02:04:00,65.7,57.3,29.91,ENE,63,11.0,-999.0,74,0.00,,,0.00,PyWeather,2013-01-20 12:04:00,
2013-01-20 02:05:00,65.6,57.2,29.91,ENE,57,11.0,19.0,74,0.00,,,0.00,PyWeather,2013-01-20 12:05:00,
2013-01-20 02:07:00,65.6,57.6,29.92,ENE,57,11.0,17.0,75,0.00,,,0.00,PyWeather,2013-01-20 12:07:00,
2013-01-20 02:08:00,65.5,57.1,29.91,ENE,62,11.0,19.0,74,0.00,,,0.00,PyWeather,2013-01-20 12:08:00,
2013-01-20 02:09:00,65.6,57.2,29.91,NE,53,11.0,19.0,74,0.00,,,0.00,PyWeather,2013-01-20 12:09:00,
2013-01-20 02:11:00,65.5,57.5,29.91,NE,44,11.0,19.0,75,0.00,,,0.00,PyWeather,2013-01-20 12:11:00,
2013-01-20 02:12:00,65.6,57.6,29.91,ENE,59,11.0,-999.0,75,0.00,,,0.00,PyWeather,2013-01-20 12:12:00,
2013-01-20 02:13:00,65.6,57.6,29.91,ENE,62,10.0,19.0,75,0.00,,,0.00,PyWeather,2013-01-20 12:13:00,
2013-01-20 02:14:00,65.6,57.6,29.91,East,81,10.0,19.0,75,0.00,,,0.00,PyWeather,2013-01-20 12:14:00,
2013-01-20 02:15:00,65.7,57.7,29.91,ENE,59,10.0,-999.0,75,0.00,,,0.00,PyWeather,2013-01-20 12:15:00,
2013-01-20 02:16:00,65.8,57.4,29.91,NE,49,10.0,-999.0,74,0.00,,,0.00,PyWeather,2013-01-20 12:16:00,
2013-01-20 02:17:00,65.9,57.5,29.91,NE,42,11.0,-999.0,74,0.00,,,0.00,PyWeather,2013-01-20 12:17:00,
2013-01-20 02:18:00,65.7,57.3,29.91,ENE,64,11.0,-999.0,74,0.00,,,0.00,PyWeather,2013-01-20 12:18:00,
2013-01-20 02:19:00,66.0,57.6,29.91,ENE,65,11.0,-999.0,74,0.00,,,0.00,PyWeather,2013-01-20 12:19:00,
2013-01-20 02:21:00,66.1,57.3,29.91,NE,50,11.0,-999.0,73,0.00,,,0.00,PyWeather,2013-01-20 12:21:00,
2013-01-20 02:23:00,65.5,57.1,29.91,NE,43,11.0,19.0,74,0.00,,,0.00,PyWeather,2013-01-20 12:23:00,
2013-01-20 02:25:00,66.3,57.5,29.91,NE,46,12.0,-999.0,73,0.00,,,0.00,PyWeather,2013-01-20 12:25:00,
2013-01-20 02:26:00,66.3,57.2,29.91,NE,42,11.0,-999.0,72,0.00,,,0.00,PyWeather,2013-01-20 12:26:00,
2013-01-20 02:29:00,65.7,57.7,29.91,NE,46,10.0,-999.0,75,0.00,,,0.00,PyWeather,2013-01-20 12:29:00,
2013-01-20 02:30:00,66.4,57.6,29.91,NE,43,11.0,-999.0,73,0.00,,,0.00,PyWeather,2013-01-20 12:30:00,
2013-01-20 02:31:00,66.4,57.2,29.91,NE,43,11.0,-999.0,72,0.00,,,0.00,PyWeather,2013-01-20 12:31:00,
2013-01-20 02:33:00,66.5,57.3,29.91,NE,39,11.0,-999.0,72,0.00,,,0.00,PyWeather,2013-01-20 12:33:00,
2013-01-20 02:34:00,66.1,57.3,29.91,ENE,71,11.0,-999.0,73,0.00,,,0.00,PyWeather,2013-01-20 12:34:00,
2013-01-20 02:35:00,66.5,57.3,29.91,NE,44,11.0,-999.0,72,0.00,,,0.00,PyWeather,2013-01-20 12:35:00,
2013-01-20 02:36:00,66.5,57.3,29.91,NE,46,11.0,-999.0,72,0.00,,,0.00,PyWeather,2013-01-20 12:36:00,
2013-01-20 02:37:00,66.5,57.3,29.91,NE,55,11.0,-999.0,72,0.00,,,0.00,PyWeather,2013-01-20 12:37:00,
2013-01-20 02:38:00,66.5,57.3,29.91,NE,38,11.0,-999.0,72,0.00,,,0.00,PyWeather,2013-01-20 12:38:00,
2013-01-20 02:39:00,66.5,57.3,29.91,NE,54,11.0,-999.0,72,0.00,,,0.00,PyWeather,2013-01-20 12:39:00,
2013-01-20 02:40:00,66.3,57.5,29.91,NE,44,12.0,-999.0,73,0.00,,,0.00,PyWeather,2013-01-20 12:40:00,
2013-01-20 02:41:00,66.5,57.3,29.91,NE,38,11.0,-999.0,72,0.00,,,0.00,PyWeather,2013-01-20 12:41:00,
2013-01-20 02:43:00,66.5,57.3,29.91,NE,55,12.0,-999.0,72,0.00,,,0.00,PyWeather,2013-01-20 12:43:00,
2013-01-20 02:44:00,66.5,57.3,29.91,NE,41,11.0,-999.0,72,0.00,,,0.00,PyWeather,2013-01-20 12:44:00,
2013-01-20 02:45:00,66.4,57.2,29.91,NE,40,11.0,-999.0,72,0.00,,,0.00,PyWeather,2013-01-20 12:45:00,
2013-01-20 02:46:00,66.5,57.3,29.91,NE,43,12.0,-999.0,72,0.00,,,0.00,PyWeather,2013-01-20 12:46:00,
2013-01-20 02:47:00,66.5,57.3,29.91,NNE,25,12.0,-999.0,72,0.00,,,0.00,PyWeather,2013-01-20 12:47:00,
2013-01-20 02:48:00,66.5,57.3,29.91,NE,46,12.0,-999.0,72,0.00,,,0.00,PyWeather,2013-01-20 12:48:00,
2013-01-20 02:50:00,66.5,57.3,29.91,NE,43,11.0,-999.0,72,0.00,,,0.00,PyWeather,2013-01-20 12:50:00,
2013-01-20 02:51:00,66.5,57.3,29.91,NE,51,12.0,-999.0,72,0.00,,,0.00,PyWeather,2013-01-20 12:51:00,
2013-01-20 02:52:00,66.3,57.2,29.91,NE,42,11.0,-999.0,72,0.00,,,0.00,PyWeather,2013-01-20 12:52:00,
2013-01-20 02:53:00,66.3,57.2,29.91,NE,43,11.0,-999.0,72,0.00,,,0.00,PyWeather,2013-01-20 12:53:00,
2013-01-20 02:54:00,66.2,57.1,29.91,NE,42,11.0,-999.0,72,0.00,,,0.00,PyWeather,2013-01-20 12:54:00,
2013-01-20 02:55:00,66.5,57.3,29.91,NE,50,11.0,-999.0,72,0.00,,,0.00,PyWeather,2013-01-20 12:55:00,
2013-01-20 02:59:00,65.9,57.1,29.91,NE,56,11.0,-999.0,73,0.00,,,0.00,PyWeather,2013-01-20 12:59:00,
2013-01-20 03:00:00,66.5,57.3,29.91,NE,40,12.0,-999.0,72,0.00,,,0.00,PyWeather,2013-01-20 13:00:00,
2013-01-20 03:01:00,65.9,57.1,29.91,NE,41,11.0,-999.0,73,0.00,,,0.00,PyWeather,2013-01-20 13:01:00,
2013-01-20 03:02:00,65.9,57.1,29.91,NE,44,11.0,-999.0,73,0.00,,,0.00,PyWeather,2013-01-20 13:02:00,
2013-01-20 03:03:00,66.0,57.2,29.91,ENE,69,11.0,-999.0,73,0.00,,,0.00,PyWeather,2013-01-20 13:03:00,
2013-01-20 03:06:00,66.4,57.2,29.91,NNE,32,12.0,-999.0,72,0.00,,,0.00,PyWeather,2013-01-20 13:06:00,
2013-01-20 03:07:00,66.0,56.9,29.91,ENE,61,11.0,-999.0,72,0.00,,,0.00,PyWeather,2013-01-20 13:07:00,
2013-01-20 03:08:00,66.0,56.9,29.91,NE,48,11.0,-999.0,72,0.00,,,0.00,PyWeather,2013-01-20 13:08:00,
2013-01-20 03:09:00,66.0,56.9,29.91,NE,51,11.0,-999.0,72,0.00,,,0.00,PyWeather,2013-01-20 13:09:00,
2013-01-20 03:10:00,65.9,56.8,29.91,NE,53,11.0,-999.0,72,0.00,,,0.00,PyWeather,2013-01-20 13:10:00,
2013-01-20 03:11:00,66.1,57.0,29.91,ENE,57,11.0,-999.0,72,0.00,,,0.00,PyWeather,2013-01-20 13:11:00,
2013-01-20 03:12:00,65.8,56.7,29.91,NE,46,10.0,-999.0,72,0.00,,,0.00,PyWeather,2013-01-20 13:12:00,
2013-01-20 03:13:00,65.7,56.6,29.91,ENE,59,10.0,-999.0,72,0.00,,,0.00,PyWeather,2013-01-20 13:13:00,
2013-01-20 03:14:00,65.7,56.6,29.91,ENE,59,10.0,-999.0,72,0.00,,,0.00,PyWeather,2013-01-20 13:14:00,
2013-01-20 03:15:00,65.6,56.8,29.91,ENE,57,10.0,-999.0,73,0.00,,,0.00,PyWeather,2013-01-20 13:15:00,
2013-01-20 03:16:00,65.9,57.1,29.91,NE,53,11.0,-999.0,73,0.00,,,0.00,PyWeather,2013-01-20 13:16:00,
2013-01-20 03:19:00,65.4,56.7,29.91,ENE,67,10.0,-999.0,73,0.00,,,0.00,PyWeather,2013-01-20 13:19:00,
2013-01-20 03:20:00,65.3,56.6,29.91,ENE,57,10.0,-999.0,73,0.00,,,0.00,PyWeather,2013-01-20 13:20:00,
2013-01-20 03:21:00,66.0,56.9,29.91,NE,51,11.0,-999.0,72,0.00,,,0.00,PyWeather,2013-01-20 13:21:00,
2013-01-20 03:22:00,65.2,56.8,29.91,ENE,60,10.0,-999.0,74,0.00,,,0.00,PyWeather,2013-01-20 13:22:00,
2013-01-20 03:23:00,65.1,56.7,29.91,NE,48,10.0,-999.0,74,0.00,,,0.00,PyWeather,2013-01-20 13:23:00,
2013-01-20 03:24:00,65.1,56.7,29.90,ENE,59,10.0,-999.0,74,0.00,,,0.00,PyWeather,2013-01-20 13:24:00,
2013-01-20 03:25:00,65.0,56.6,29.90,ENE,74,9.0,-999.0,74,0.00,,,0.00,PyWeather,2013-01-20 13:25:00,
2013-01-20 03:26:00,65.0,56.6,29.90,ENE,71,9.0,-999.0,74,0.00,,,0.00,PyWeather,2013-01-20 13:26:00,
2013-01-20 03:27:00,65.7,56.6,29.91,NE,47,10.0,-999.0,72,0.00,,,0.00,PyWeather,2013-01-20 13:27:00,
2013-01-20 03:32:00,65.4,56.7,29.91,ENE,61,10.0,-999.0,73,0.00,,,0.00,PyWeather,2013-01-20 13:32:00,
2013-01-20 03:38:00,65.1,56.7,29.91,ENE,65,10.0,-999.0,74,0.00,,,0.00,PyWeather,2013-01-20 13:38:00,
2013-01-20 03:39:00,64.8,56.8,29.90,NE,49,8.0,-999.0,75,0.00,,,0.00,PyWeather,2013-01-20 13:39:00,
2013-01-20 03:40:00,64.8,56.8,29.90,ENE,72,8.0,-999.0,75,0.00,,,0.00,PyWeather,2013-01-20 13:40:00,
2013-01-20 03:41:00,64.9,56.9,29.90,NE,56,8.0,-999.0,75,0.00,,,0.00,PyWeather,2013-01-20 13:41:00,
2013-01-20 03:43:00,64.9,56.5,29.90,ENE,59,9.0,-999.0,74,0.00,,,0.00,PyWeather,2013-01-20 13:43:00,
2013-01-20 03:44:00,64.9,56.5,29.90,ENE,62,8.0,-999.0,74,0.00,,,0.00,PyWeather,2013-01-20 13:44:00,
2013-01-20 03:45:00,64.9,56.5,29.90,ENE,61,8.0,-999.0,74,0.00,,,0.00,PyWeather,2013-01-20 13:45:00,
2013-01-20 03:47:00,64.9,56.5,29.90,ENE,60,9.0,-999.0,74,0.00,,,0.00,PyWeather,2013-01-20 13:47:00,
2013-01-20 03:48:00,64.8,56.4,29.90,ENE,69,9.0,-999.0,74,0.00,,,0.00,PyWeather,2013-01-20 13:48:00,
2013-01-20 03:50:00,64.9,56.5,29.90,NE,50,9.0,-999.0,74,0.00,,,0.00,PyWeather,2013-01-20 13:50:00,
2013-01-20 03:51:00,64.9,56.5,29.90,NE,55,10.0,-999.0,74,0.00,,,0.00,PyWeather,2013-01-20 13:51:00,
2013-01-20 03:52:00,64.9,56.5,29.90,ENE,67,10.0,-999.0,74,0.00,,,0.00,PyWeather,2013-01-20 13:52:00,
2013-01-20 03:53:00,64.9,56.5,29.90,ENE,59,10.0,-999.0,74,0.00,,,0.00,PyWeather,2013-01-20 13:53:00,
2013-01-20 03:54:00,64.8,56.8,29.90,NE,54,8.0,-999.0,75,0.00,,,0.00,PyWeather,2013-01-20 13:54:00,
2013-01-20 03:56:00,64.9,56.5,29.90,NE,48,9.0,-999.0,74,0.00,,,0.00,PyWeather,2013-01-20 13:56:00,
2013-01-20 03:57:00,64.8,56.4,29.90,NE,44,9.0,-999.0,74,0.00,,,0.00,PyWeather,2013-01-20 13:57:00,
2013-01-20 03:58:00,64.8,56.8,29.90,NE,55,9.0,-999.0,75,0.00,,,0.00,PyWeather,2013-01-20 13:58:00,
2013-01-20 03:59:00,64.9,56.5,29.90,NE,45,8.0,-999.0,74,0.00,,,0.00,PyWeather,2013-01-20 13:59:00,
2013-01-20 04:00:00,64.9,56.9,29.90,ENE,67,9.0,-999.0,75,0.00,,,0.00,PyWeather,2013-01-20 14:00:00,
2013-01-20 04:01:00,64.9,56.5,29.90,NE,54,9.0,-999.0,74,0.00,,,0.00,PyWeather,2013-01-20 14:01:00,
2013-01-20 04:03:00,64.9,56.5,29.90,ENE,65,9.0,-999.0,74,0.00,,,0.00,PyWeather,2013-01-20 14:03:00,
2013-01-20 04:04:00,64.9,56.5,29.90,NE,56,9.0,-999.0,74,0.00,,,0.00,PyWeather,2013-01-20 14:04:00,
2013-01-20 04:09:00,64.9,56.5,29.90,ENE,67,9.0,-999.0,74,0.00,,,0.00,PyWeather,2013-01-20 14:09:00,
2013-01-20 04:10:00,65.2,56.8,29.90,ENE,57,10.0,-999.0,74,0.00,,,0.00,PyWeather,2013-01-20 14:10:00,
2013-01-20 04:11:00,65.2,56.8,29.90,ENE,57,10.0,-999.0,74,0.00,,,0.00,PyWeather,2013-01-20 14:11:00,
2013-01-20 04:12:00,65.2,56.8,29.90,NE,34,10.0,-999.0,74,0.00,,,0.00,PyWeather,2013-01-20 14:12:00,
2013-01-20 04:13:00,65.2,56.8,29.90,ENE,60,10.0,-999.0,74,0.00,,,0.00,PyWeather,2013-01-20 14:13:00,
2013-01-20 04:14:00,64.9,56.9,29.90,ENE,59,9.0,-999.0,75,0.00,,,0.00,PyWeather,2013-01-20 14:14:00,
2013-01-20 04:15:00,65.4,57.0,29.90,ENE,68,10.0,-999.0,74,0.00,,,0.00,PyWeather,2013-01-20 14:15:00,
2013-01-20 04:17:00,65.5,56.8,29.90,NE,51,10.0,-999.0,73,0.00,,,0.00,PyWeather,2013-01-20 14:17:00,
2013-01-20 04:18:00,65.5,56.8,29.90,ENE,70,10.0,-999.0,73,0.00,,,0.00,PyWeather,2013-01-20 14:18:00,
2013-01-20 04:19:00,65.0,56.6,29.90,NE,55,9.0,-999.0,74,0.00,,,0.00,PyWeather,2013-01-20 14:19:00,
2013-01-20 04:20:00,65.5,56.8,29.90,ENE,62,10.0,-999.0,73,0.00,,,0.00,PyWeather,2013-01-20 14:20:00,
2013-01-20 04:21:00,65.5,56.8,29.90,NE,45,10.0,-999.0,73,0.00,,,0.00,PyWeather,2013-01-20 14:21:00,
2013-01-20 04:22:00,65.6,56.8,29.90,NE,52,10.0,-999.0,73,0.00,,,0.00,PyWeather,2013-01-20 14:22:00,
2013-01-20 04:23:00,65.6,56.8,29.90,ENE,57,10.0,-999.0,73,0.00,,,0.00,PyWeather,2013-01-20 14:23:00,
2013-01-20 04:24:00,65.2,56.8,29.90,ENE,66,10.0,-999.0,74,0.00,,,0.00,PyWeather,2013-01-20 14:24:00,
2013-01-20 04:25:00,65.7,56.9,29.90,ENE,61,10.0,-999.0,73,0.00,,,0.00,PyWeather,2013-01-20 14:25:00,
2013-01-20 04:26:00,65.7,56.9,29.90,NE,41,10.0,-999.0,73,0.00,,,0.00,PyWeather,2013-01-20 14:26:00,
2013-01-20 04:27:00,65.8,57.0,29.90,NE,41,10.0,-999.0,73,0.00,,,0.00,PyWeather,2013-01-20 14:27:00,
2013-01-20 04:29:00,65.4,57.0,29.90,ENE,63,10.0,-999.0,74,0.00,,,0.00,PyWeather,2013-01-20 14:29:00,
2013-01-20 04:30:00,65.9,57.1,29.90,NE,40,10.0,-999.0,73,0.00,,,0.00,PyWeather,2013-01-20 14:30:00,
2013-01-20 04:31:00,65.9,57.1,29.90,NE,55,10.0,-999.0,73,0.00,,,0.00,PyWeather,2013-01-20 14:31:00,
2013-01-20 04:34:00,66.0,57.2,29.90,NE,47,10.0,-999.0,73,0.00,,,0.00,PyWeather,2013-01-20 14:34:00,
2013-01-20 04:35:00,65.6,56.8,29.90,NE,49,10.0,-999.0,73,0.00,,,0.00,PyWeather,2013-01-20 14:35:00,
2013-01-20 04:36:00,66.1,57.3,29.90,NE,47,11.0,-999.0,73,0.00,,,0.00,PyWeather,2013-01-20 14:36:00,
2013-01-20 04:37:00,66.2,57.4,29.90,NE,44,10.0,-999.0,73,0.00,,,0.00,PyWeather,2013-01-20 14:37:00,
2013-01-20 04:39:00,66.3,57.2,29.90,NE,42,10.0,-999.0,72,0.00,,,0.00,PyWeather,2013-01-20 14:39:00,
2013-01-20 04:40:00,65.7,56.9,29.90,NE,46,10.0,-999.0,73,0.00,,,0.00,PyWeather,2013-01-20 14:40:00,
2013-01-20 04:41:00,66.3,57.2,29.90,ENE,63,11.0,-999.0,72,0.00,,,0.00,PyWeather,2013-01-20 14:41:00,
2013-01-20 04:42:00,66.3,57.2,29.90,ENE,71,11.0,-999.0,72,0.00,,,0.00,PyWeather,2013-01-20 14:42:00,
2013-01-20 04:44:00,66.3,57.2,29.90,ENE,62,11.0,-999.0,72,0.00,,,0.00,PyWeather,2013-01-20 14:44:00,
2013-01-20 04:45:00,65.9,57.1,29.90,NE,42,10.0,-999.0,73,0.00,,,0.00,PyWeather,2013-01-20 14:45:00,
2013-01-20 04:46:00,66.3,57.2,29.90,NE,41,11.0,-999.0,72,0.00,,,0.00,PyWeather,2013-01-20 14:46:00,
2013-01-20 04:47:00,66.3,57.2,29.90,NE,45,11.0,-999.0,72,0.00,,,0.00,PyWeather,2013-01-20 14:47:00,
2013-01-20 04:48:00,66.3,57.2,29.90,ENE,63,11.0,-999.0,72,0.00,,,0.00,PyWeather,2013-01-20 14:48:00,
2013-01-20 04:50:00,66.3,57.2,29.90,ENE,59,10.0,-999.0,72,0.00,,,0.00,PyWeather,2013-01-20 14:50:00,
2013-01-20 04:51:00,66.1,57.3,29.90,ENE,60,11.0,-999.0,73,0.00,,,0.00,PyWeather,2013-01-20 14:51:00,
2013-01-20 04:52:00,66.3,57.5,29.90,ENE,59,10.0,-999.0,73,0.00,,,0.00,PyWeather,2013-01-20 14:52:00,
2013-01-20 04:53:00,66.3,57.5,29.90,NE,48,10.0,-999.0,73,0.00,,,0.00,PyWeather,2013-01-20 14:53:00,
2013-01-20 04:54:00,66.4,57.6,29.90,NE,49,10.0,-999.0,73,0.00,,,0.00,PyWeather,2013-01-20 14:54:00,
2013-01-20 04:55:00,66.4,57.6,29.90,ENE,67,10.0,17.0,73,0.00,,,0.00,PyWeather,2013-01-20 14:55:00,
2013-01-20 04:56:00,66.5,57.7,29.90,NE,56,10.0,17.0,73,0.00,,,0.00,PyWeather,2013-01-20 14:56:00,
2013-01-20 04:57:00,66.3,57.2,29.90,NE,54,11.0,-999.0,72,0.00,,,0.00,PyWeather,2013-01-20 14:57:00,
2013-01-20 04:59:00,66.6,57.8,29.90,ENE,63,11.0,17.0,73,0.00,,,0.00,PyWeather,2013-01-20 14:59:00,
2013-01-20 05:00:00,66.6,57.4,29.91,ENE,57,11.0,17.0,72,0.00,,,0.00,PyWeather,2013-01-20 15:00:00,
2013-01-20 05:01:00,66.7,57.5,29.90,ENE,58,11.0,17.0,72,0.00,,,0.00,PyWeather,2013-01-20 15:01:00,
2013-01-20 05:02:00,66.3,57.2,29.90,NE,51,11.0,-999.0,72,0.00,,,0.00,PyWeather,2013-01-20 15:02:00,
2013-01-20 05:03:00,66.7,57.5,29.91,NE,53,11.0,17.0,72,0.00,,,0.00,PyWeather,2013-01-20 15:03:00,
2013-01-20 05:04:00,66.7,57.9,29.90,NE,50,11.0,17.0,73,0.00,,,0.00,PyWeather,2013-01-20 15:04:00,
2013-01-20 05:05:00,66.7,57.9,29.91,ENE,57,11.0,-999.0,73,0.00,,,0.00,PyWeather,2013-01-20 15:05:00,
2013-01-20 05:06:00,66.7,57.9,29.91,NE,53,11.0,-999.0,73,0.00,,,0.00,PyWeather,2013-01-20 15:06:00,
2013-01-20 05:07:00,66.3,57.5,29.90,NE,44,10.0,-999.0,73,0.00,,,0.00,PyWeather,2013-01-20 15:07:00,
2013-01-20 05:08:00,66.7,57.9,29.91,ENE,64,11.0,-999.0,73,0.00,,,0.00,PyWeather,2013-01-20 15:08:00,
2013-01-20 05:13:00,66.6,57.8,29.90,NE,50,11.0,17.0,73,0.00,,,0.00,PyWeather,2013-01-20 15:13:00,
2013-01-20 05:14:00,66.4,58.0,29.91,ENE,61,10.0,-999.0,74,0.00,,,0.00,PyWeather,2013-01-20 15:14:00,
2013-01-20 05:16:00,66.3,57.9,29.91,NE,53,10.0,-999.0,74,0.00,,,0.00,PyWeather,2013-01-20 15:16:00,
2013-01-20 05:18:00,66.7,57.5,29.90,NE,53,11.0,17.0,72,0.00,,,0.00,PyWeather,2013-01-20 15:18:00,
2013-01-20 05:20:00,66.3,57.9,29.91,ENE,63,10.0,-999.0,74,0.00,,,0.00,PyWeather,2013-01-20 15:20:00,
2013-01-20 05:21:00,66.2,57.8,29.91,NE,55,10.0,-999.0,74,0.00,,,0.00,PyWeather,2013-01-20 15:21:00,
2013-01-20 05:23:00,66.6,57.8,29.90,ENE,66,11.0,-999.0,73,0.00,,,0.00,PyWeather,2013-01-20 15:23:00,
2013-01-20 05:24:00,66.2,57.8,29.91,ENE,61,10.0,-999.0,74,0.00,,,0.00,PyWeather,2013-01-20 15:24:00,
2013-01-20 05:26:00,66.1,58.1,29.91,NE,48,11.0,-999.0,75,0.00,,,0.00,PyWeather,2013-01-20 15:26:00,
2013-01-20 05:27:00,66.1,58.1,29.91,ENE,64,11.0,-999.0,75,0.00,,,0.00,PyWeather,2013-01-20 15:27:00,
2013-01-20 05:28:00,66.4,58.0,29.91,NE,42,10.0,-999.0,74,0.00,,,0.00,PyWeather,2013-01-20 15:28:00,
2013-01-20 05:29:00,66.1,58.1,29.91,ENE,63,11.0,-999.0,75,0.00,,,0.00,PyWeather,2013-01-20 15:29:00,
2013-01-20 05:30:00,66.1,58.1,29.91,NE,45,11.0,-999.0,75,0.00,,,0.00,PyWeather,2013-01-20 15:30:00,
2013-01-20 05:31:00,66.1,58.1,29.91,NE,50,11.0,-999.0,75,0.00,,,0.00,PyWeather,2013-01-20 15:31:00,
2013-01-20 05:32:00,66.0,58.0,29.91,NE,49,11.0,-999.0,75,0.00,,,0.00,PyWeather,2013-01-20 15:32:00,
2013-01-20 05:33:00,66.3,57.9,29.91,NE,48,10.0,-999.0,74,0.00,,,0.00,PyWeather,2013-01-20 15:33:00,
2013-01-20 05:34:00,66.0,58.0,29.91,ENE,60,11.0,-999.0,75,0.00,,,0.00,PyWeather,2013-01-20 15:34:00,
2013-01-20 05:36:00,65.9,57.9,29.91,ENE,65,10.0,-999.0,75,0.00,,,0.00,PyWeather,2013-01-20 15:36:00,
2013-01-20 05:37:00,65.9,57.9,29.91,ENE,76,10.0,-999.0,75,0.00,,,0.00,PyWeather,2013-01-20 15:37:00,
2013-01-20 05:38:00,65.9,57.9,29.91,NE,51,10.0,-999.0,75,0.00,,,0.00,PyWeather,2013-01-20 15:38:00,
2013-01-20 05:39:00,66.2,57.8,29.91,ENE,64,10.0,-999.0,74,0.00,,,0.00,PyWeather,2013-01-20 15:39:00,
2013-01-20 05:40:00,65.9,57.9,29.91,NE,53,10.0,-999.0,75,0.00,,,0.00,PyWeather,2013-01-20 15:40:00,
2013-01-20 05:41:00,65.8,57.8,29.92,ENE,64,10.0,-999.0,75,0.00,,,0.00,PyWeather,2013-01-20 15:41:00,
2013-01-20 05:42:00,65.9,57.9,29.92,NE,55,10.0,-999.0,75,0.00,,,0.00,PyWeather,2013-01-20 15:42:00,
2013-01-20 05:43:00,65.8,57.8,29.92,ENE,60,10.0,-999.0,75,0.00,,,0.00,PyWeather,2013-01-20 15:43:00,
2013-01-20 05:44:00,66.1,58.1,29.91,ENE,63,11.0,-999.0,75,0.00,,,0.00,PyWeather,2013-01-20 15:44:00,
2013-01-20 05:45:00,65.8,58.1,29.92,NE,50,10.0,17.0,76,0.00,,,0.00,PyWeather,2013-01-20 15:45:00,
2013-01-20 05:46:00,65.7,57.7,29.92,ENE,71,10.0,17.0,75,0.00,,,0.00,PyWeather,2013-01-20 15:46:00,
2013-01-20 05:47:00,65.7,58.0,29.92,ENE,69,10.0,17.0,76,0.00,,,0.00,PyWeather,2013-01-20 15:47:00,
2013-01-20 05:48:00,65.6,57.9,29.92,ENE,74,9.0,17.0,76,0.00,,,0.00,PyWeather,2013-01-20 15:48:00,
2013-01-20 05:50:00,65.9,57.9,29.91,ENE,63,10.0,-999.0,75,0.00,,,0.00,PyWeather,2013-01-20 15:50:00,
2013-01-20 05:51:00,65.6,57.9,29.92,ENE,68,9.0,17.0,76,0.00,,,0.00,PyWeather,2013-01-20 15:51:00,
2013-01-20 05:52:00,65.6,57.9,29.92,NE,46,9.0,17.0,76,0.00,,,0.00,PyWeather,2013-01-20 15:52:00,
2013-01-20 05:53:00,65.6,57.9,29.92,ENE,59,9.0,17.0,76,0.00,,,0.00,PyWeather,2013-01-20 15:53:00,
2013-01-20 05:55:00,65.9,57.9,29.92,ENE,61,10.0,-999.0,75,0.00,,,0.00,PyWeather,2013-01-20 15:55:00,
2013-01-20 05:58:00,65.5,57.8,29.92,NE,51,8.0,-999.0,76,0.00,,,0.00,PyWeather,2013-01-20 15:58:00,
2013-01-20 06:00:00,65.7,57.7,29.92,ENE,68,10.0,17.0,75,0.00,,,0.00,PyWeather,2013-01-20 16:00:00,
2013-01-20 06:02:00,65.4,57.7,29.93,NE,52,7.0,-999.0,76,0.00,,,0.00,PyWeather,2013-01-20 16:02:00,
2013-01-20 06:03:00,65.4,57.7,29.93,ENE,63,7.0,-999.0,76,0.00,,,0.00,PyWeather,2013-01-20 16:03:00,
2013-01-20 06:05:00,65.6,57.9,29.92,NE,53,9.0,17.0,76,0.00,,,0.00,PyWeather,2013-01-20 16:05:00,
2013-01-20 06:06:00,65.4,57.7,29.93,ENE,69,8.0,-999.0,76,0.00,,,0.00,PyWeather,2013-01-20 16:06:00,
2013-01-20 06:07:00,65.5,57.8,29.93,ENE,73,8.0,-999.0,76,0.00,,,0.00,PyWeather,2013-01-20 16:07:00,
2013-01-20 06:08:00,65.5,57.8,29.92,NE,55,8.0,-999.0,76,0.00,,,0.00,PyWeather,2013-01-20 16:08:00,
2013-01-20 06:09:00,65.6,57.9,29.93,ENE,60,9.0,-999.0,76,0.00,,,0.00,PyWeather,2013-01-20 16:09:00,
2013-01-20 06:10:00,65.5,57.8,29.92,ENE,58,9.0,-999.0,76,0.00,,,0.00,PyWeather,2013-01-20 16:10:00,
2013-01-20 06:11:00,65.6,57.9,29.93,NE,50,10.0,-999.0,76,0.00,,,0.00,PyWeather,2013-01-20 16:11:00,
2013-01-20 06:12:00,65.7,58.0,29.93,NE,53,10.0,-999.0,76,0.00,,,0.00,PyWeather,2013-01-20 16:12:00,
2013-01-20 06:14:00,65.7,58.0,29.93,ENE,65,10.0,-999.0,76,0.00,,,0.00,PyWeather,2013-01-20 16:14:00,
2013-01-20 06:15:00,65.4,57.7,29.93,NE,47,8.0,-999.0,76,0.00,,,0.00,PyWeather,2013-01-20 16:15:00,
2013-01-20 06:16:00,65.7,57.7,29.93,ENE,57,11.0,-999.0,75,0.00,,,0.00,PyWeather,2013-01-20 16:16:00,
2013-01-20 06:17:00,65.7,57.7,29.93,ENE,63,11.0,-999.0,75,0.00,,,0.00,PyWeather,2013-01-20 16:17:00,
2013-01-20 06:18:00,65.7,57.7,29.93,NE,37,11.0,-999.0,75,0.00,,,0.00,PyWeather,2013-01-20 16:18:00,
2013-01-20 06:19:00,65.7,57.7,29.93,NE,55,10.0,-999.0,75,0.00,,,0.00,PyWeather,2013-01-20 16:19:00,
2013-01-20 06:20:00,65.8,57.8,29.93,NE,52,10.0,-999.0,75,0.00,,,0.00,PyWeather,2013-01-20 16:20:00,
2013-01-20 06:21:00,65.5,57.8,29.93,NE,55,8.0,-999.0,76,0.00,,,0.00,PyWeather,2013-01-20 16:21:00,
2013-01-20 06:22:00,65.8,57.8,29.93,ENE,60,10.0,-999.0,75,0.00,,,0.00,PyWeather,2013-01-20 16:22:00,
2013-01-20 06:23:00,65.7,57.7,29.93,ENE,68,10.0,-999.0,75,0.00,,,0.00,PyWeather,2013-01-20 16:23:00,
2013-01-20 06:24:00,65.7,57.7,29.93,ENE,66,10.0,-999.0,75,0.00,,,0.00,PyWeather,2013-01-20 16:24:00,
2013-01-20 06:25:00,65.7,57.3,29.93,ENE,63,10.0,-999.0,74,0.00,,,0.00,PyWeather,2013-01-20 16:25:00,
2013-01-20 06:26:00,65.7,58.0,29.93,ENE,59,10.0,-999.0,76,0.00,,,0.00,PyWeather,2013-01-20 16:26:00,
2013-01-20 06:27:00,65.7,57.7,29.93,ENE,67,10.0,-999.0,75,0.00,,,0.00,PyWeather,2013-01-20 16:27:00,
2013-01-20 06:28:00,65.6,57.6,29.93,NE,42,10.0,-999.0,75,0.00,,,0.00,PyWeather,2013-01-20 16:28:00,
2013-01-20 06:29:00,65.6,57.2,29.93,ENE,76,10.0,-999.0,74,0.00,,,0.00,PyWeather,2013-01-20 16:29:00,
2013-01-20 06:30:00,65.6,57.2,29.93,ENE,61,10.0,-999.0,74,0.00,,,0.00,PyWeather,2013-01-20 16:30:00,
2013-01-20 06:31:00,65.6,57.2,29.93,NE,47,10.0,-999.0,74,0.00,,,0.00,PyWeather,2013-01-20 16:31:00,
2013-01-20 06:32:00,65.6,57.2,29.94,NE,47,10.0,-999.0,74,0.00,,,0.00,PyWeather,2013-01-20 16:32:00,
2013-01-20 06:34:00,65.8,57.8,29.93,ENE,63,10.0,-999.0,75,0.00,,,0.00,PyWeather,2013-01-20 16:34:00,
2013-01-20 06:35:00,65.6,57.2,29.94,ENE,60,10.0,-999.0,74,0.00,,,0.00,PyWeather,2013-01-20 16:35:00,
2013-01-20 06:36:00,65.6,57.2,29.94,ENE,74,10.0,-999.0,74,0.00,,,0.00,PyWeather,2013-01-20 16:36:00,
2013-01-20 06:37:00,65.7,57.3,29.94,ENE,65,10.0,-999.0,74,0.00,,,0.00,PyWeather,2013-01-20 16:37:00,
2013-01-20 06:38:00,65.6,57.2,29.94,ENE,66,10.0,-999.0,74,0.00,,,0.00,PyWeather,2013-01-20 16:38:00,
2013-01-20 06:39:00,65.7,57.3,29.93,NE,55,10.0,-999.0,74,0.00,,,0.00,PyWeather,2013-01-20 16:39:00,
2013-01-20 06:40:00,65.7,57.3,29.94,ENE,65,10.0,-999.0,74,0.00,,,0.00,PyWeather,2013-01-20 16:40:00,
2013-01-20 06:42:00,65.7,57.3,29.94,NE,54,10.0,-999.0,74,0.00,,,0.00,PyWeather,2013-01-20 16:42:00,
2013-01-20 06:43:00,65.7,57.3,29.94,NE,53,10.0,-999.0,74,0.00,,,0.00,PyWeather,2013-01-20 16:43:00,
2013-01-20 06:44:00,65.7,57.3,29.94,ENE,61,10.0,-999.0,74,0.00,,,0.00,PyWeather,2013-01-20 16:44:00,
2013-01-20 06:45:00,65.6,57.2,29.93,NE,45,10.0,-999.0,74,0.00,,,0.00,PyWeather,2013-01-20 16:45:00,
2013-01-20 06:47:00,65.6,57.2,29.94,NE,43,10.0,17.0,74,0.00,,,0.00,PyWeather,2013-01-20 16:47:00,
2013-01-20 06:48:00,65.6,57.2,29.94,NE,55,10.0,17.0,74,0.00,,,0.00,PyWeather,2013-01-20 16:48:00,
2013-01-20 06:49:00,65.6,57.2,29.94,ENE,65,10.0,17.0,74,0.00,,,0.00,PyWeather,2013-01-20 16:49:00,
2013-01-20 06:50:00,65.6,57.2,29.94,ENE,65,10.0,-999.0,74,0.00,,,0.00,PyWeather,2013-01-20 16:50:00,
2013-01-20 06:55:00,65.7,57.3,29.94,ENE,65,10.0,-999.0,74,0.00,,,0.00,PyWeather,2013-01-20 16:55:00,
2013-01-20 07:00:00,65.7,57.3,29.94,NE,46,10.0,17.0,74,0.00,,,0.00,PyWeather,2013-01-20 17:00:00,
2013-01-20 07:05:00,65.6,57.2,29.94,NE,46,10.0,17.0,74,0.00,,,0.00,PyWeather,2013-01-20 17:05:00,